sensor_id;sensor_type;location;lat;lon;timestamp;temperature;humidity
5796;DHT22;2924;51.458;7.046;2023-02-01T00:01:38;4.40;99.90
5796;DHT22;2924;51.458;7.046;2023-02-01T00:04:03;4.50;99.90
5796;DHT22;2924;51.458;7.046;2023-02-01T00:06:29;4.50;99.90
5796;DHT22;2924;51.458;7.046;2023-02-01T00:08:55;4.50;99.90
5796;DHT22;2924;51.458;7.046;2023-02-01T00:11:21;4.40;99.90
5796;DHT22;2924;51.458;7.046;2023-02-01T00:13:48;4.40;99.90
5796;DHT22;2924;51.458;7.046;2023-02-01T00:16:15;4.40;99.90
5796;DHT22;2924;51.458;7.046;2023-02-01T00:18:45;4.40;99.90
5796;DHT22;2924;51.458;7.046;2023-02-01T00:21:16;4.50;99.90
5796;DHT22;2924;51.458;7.046;2023-02-01T00:23:42;4.50;99.90
5796;DHT22;2924;51.458;7.046;2023-02-01T00:26:17;4.50;99.90
5796;DHT22;2924;51.458;7.046;2023-02-01T00:28:43;4.50;99.90
5796;DHT22;2924;51.458;7.046;2023-02-01T00:31:09;4.60;99.90
5796;DHT22;2924;51.458;7.046;2023-02-01T00:33:34;4.60;99.90
5796;DHT22;2924;51.458;7.046;2023-02-01T00:36:04;4.50;99.90
5796;DHT22;2924;51.458;7.046;2023-02-01T00:38:31;4.50;99.90
5796;DHT22;2924;51.458;7.046;2023-02-01T00:43:31;4.60;99.90
5796;DHT22;2924;51.458;7.046;2023-02-01T00:45:57;4.60;99.90
5796;DHT22;2924;51.458;7.046;2023-02-01T00:48:23;4.60;99.90
5796;DHT22;2924;51.458;7.046;2023-02-01T00:50:49;4.60;99.90
5796;DHT22;2924;51.458;7.046;2023-02-01T00:53:14;4.60;99.90
5796;DHT22;2924;51.458;7.046;2023-02-01T00:55:40;4.60;99.90
5796;DHT22;2924;51.458;7.046;2023-02-01T00:58:06;4.60;99.90
5796;DHT22;2924;51.458;7.046;2023-02-01T01:00:34;4.60;99.90
5796;DHT22;2924;51.458;7.046;2023-02-01T01:03:00;4.60;99.90
5796;DHT22;2924;51.458;7.046;2023-02-01T01:05:25;4.60;99.90
5796;DHT22;2924;51.458;7.046;2023-02-01T01:07:53;4.70;99.90
5796;DHT22;2924;51.458;7.046;2023-02-01T01:10:18;4.70;99.90
5796;DHT22;2924;51.458;7.046;2023-02-01T01:12:44;4.80;99.90
5796;DHT22;2924;51.458;7.046;2023-02-01T01:15:10;4.90;99.90
5796;DHT22;2924;51.458;7.046;2023-02-01T01:17:35;4.90;99.90
5796;DHT22;2924;51.458;7.046;2023-02-01T01:20:02;4.90;99.90
5796;DHT22;2924;51.458;7.046;2023-02-01T01:22:28;5.00;99.90
5796;DHT22;2924;51.458;7.046;2023-02-01T01:24:53;5.00;99.90
5796;DHT22;2924;51.458;7.046;2023-02-01T01:27:19;5.00;99.90
5796;DHT22;2924;51.458;7.046;2023-02-01T01:29:49;5.00;99.90
5796;DHT22;2924;51.458;7.046;2023-02-01T01:32:15;5.10;99.90
5796;DHT22;2924;51.458;7.046;2023-02-01T01:34:40;5.20;99.90
5796;DHT22;2924;51.458;7.046;2023-02-01T01:37:06;5.20;99.90
5796;DHT22;2924;51.458;7.046;2023-02-01T01:39:32;5.20;99.90
5796;DHT22;2924;51.458;7.046;2023-02-01T01:41:57;5.20;99.90
5796;DHT22;2924;51.458;7.046;2023-02-01T01:44:58;5.10;99.90
5796;DHT22;2924;51.458;7.046;2023-02-01T01:47:26;5.10;99.90
5796;DHT22;2924;51.458;7.046;2023-02-01T01:49:54;5.00;99.90
5796;DHT22;2924;51.458;7.046;2023-02-01T01:52:20;5.00;99.90
5796;DHT22;2924;51.458;7.046;2023-02-01T01:54:48;5.00;99.90
5796;DHT22;2924;51.458;7.046;2023-02-01T01:57:27;5.00;99.90
5796;DHT22;2924;51.458;7.046;2023-02-01T02:00:03;5.00;99.90
5796;DHT22;2924;51.458;7.046;2023-02-01T02:02:29;5.00;99.90
5796;DHT22;2924;51.458;7.046;2023-02-01T02:04:55;4.90;99.90
5796;DHT22;2924;51.458;7.046;2023-02-01T02:07:26;4.90;99.90
5796;DHT22;2924;51.458;7.046;2023-02-01T02:09:52;4.90;99.90
5796;DHT22;2924;51.458;7.046;2023-02-01T02:12:18;4.80;99.90
5796;DHT22;2924;51.458;7.046;2023-02-01T02:14:44;4.80;99.90
5796;DHT22;2924;51.458;7.046;2023-02-01T02:17:35;4.80;99.90
5796;DHT22;2924;51.458;7.046;2023-02-01T02:31:12;4.60;99.90
5796;DHT22;2924;51.458;7.046;2023-02-01T02:36:38;4.60;99.90
5796;DHT22;2924;51.458;7.046;2023-02-01T02:39:16;4.50;99.90
5796;DHT22;2924;51.458;7.046;2023-02-01T02:45:00;4.60;99.90
5796;DHT22;2924;51.458;7.046;2023-02-01T02:50:46;4.70;99.90
5796;DHT22;2924;51.458;7.046;2023-02-01T02:54:27;4.60;99.90
5796;DHT22;2924;51.458;7.046;2023-02-01T02:57:06;4.60;99.90
5796;DHT22;2924;51.458;7.046;2023-02-01T02:59:52;4.50;99.90
5796;DHT22;2924;51.458;7.046;2023-02-01T03:02:37;4.50;99.90
5796;DHT22;2924;51.458;7.046;2023-02-01T03:05:21;4.40;99.90
5796;DHT22;2924;51.458;7.046;2023-02-01T03:07:57;4.30;99.90
5796;DHT22;2924;51.458;7.046;2023-02-01T03:16:05;4.10;99.90
5796;DHT22;2924;51.458;7.046;2023-02-01T03:18:57;4.10;99.90
5796;DHT22;2924;51.458;7.046;2023-02-01T03:21:36;4.10;99.90
5796;DHT22;2924;51.458;7.046;2023-02-01T03:26:38;4.30;99.90
5796;DHT22;2924;51.458;7.046;2023-02-01T03:29:24;4.40;99.90
5796;DHT22;2924;51.458;7.046;2023-02-01T03:31:50;4.50;99.90
5796;DHT22;2924;51.458;7.046;2023-02-01T03:34:16;4.60;99.90
5796;DHT22;2924;51.458;7.046;2023-02-01T03:36:48;4.60;99.90
5796;DHT22;2924;51.458;7.046;2023-02-01T03:39:23;4.60;99.90
5796;DHT22;2924;51.458;7.046;2023-02-01T03:41:53;4.60;99.90
5796;DHT22;2924;51.458;7.046;2023-02-01T03:44:27;4.50;99.90
5796;DHT22;2924;51.458;7.046;2023-02-01T03:47:26;4.60;99.90
5796;DHT22;2924;51.458;7.046;2023-02-01T03:50:03;4.70;99.90
5796;DHT22;2924;51.458;7.046;2023-02-01T03:52:35;4.70;99.90
5796;DHT22;2924;51.458;7.046;2023-02-01T03:55:02;4.80;99.90
5796;DHT22;2924;51.458;7.046;2023-02-01T03:57:33;4.70;99.90
5796;DHT22;2924;51.458;7.046;2023-02-01T04:00:21;4.70;99.90
5796;DHT22;2924;51.458;7.046;2023-02-01T04:02:47;4.70;99.90
5796;DHT22;2924;51.458;7.046;2023-02-01T04:05:13;4.70;99.90
5796;DHT22;2924;51.458;7.046;2023-02-01T04:07:39;4.70;99.90
5796;DHT22;2924;51.458;7.046;2023-02-01T04:10:05;4.60;99.90
5796;DHT22;2924;51.458;7.046;2023-02-01T04:12:31;4.60;99.90
5796;DHT22;2924;51.458;7.046;2023-02-01T04:14:56;4.70;99.90
5796;DHT22;2924;51.458;7.046;2023-02-01T04:17:23;4.70;99.90
5796;DHT22;2924;51.458;7.046;2023-02-01T04:19:49;4.80;99.90
5796;DHT22;2924;51.458;7.046;2023-02-01T04:22:14;4.80;99.90
5796;DHT22;2924;51.458;7.046;2023-02-01T04:24:40;4.80;99.90
5796;DHT22;2924;51.458;7.046;2023-02-01T04:27:06;4.80;99.90
5796;DHT22;2924;51.458;7.046;2023-02-01T04:29:31;4.80;99.90
5796;DHT22;2924;51.458;7.046;2023-02-01T04:31:57;4.80;99.90
5796;DHT22;2924;51.458;7.046;2023-02-01T04:34:22;4.70;99.90
5796;DHT22;2924;51.458;7.046;2023-02-01T04:36:50;4.70;99.90
5796;DHT22;2924;51.458;7.046;2023-02-01T04:39:16;4.70;99.90
5796;DHT22;2924;51.458;7.046;2023-02-01T04:41:41;4.60;99.90
5796;DHT22;2924;51.458;7.046;2023-02-01T04:44:16;4.60;99.90
5796;DHT22;2924;51.458;7.046;2023-02-01T04:46:43;4.50;99.90
5796;DHT22;2924;51.458;7.046;2023-02-01T04:49:10;4.60;99.90
5796;DHT22;2924;51.458;7.046;2023-02-01T04:51:35;4.60;99.90
5796;DHT22;2924;51.458;7.046;2023-02-01T04:54:01;4.60;99.90
5796;DHT22;2924;51.458;7.046;2023-02-01T04:56:27;4.60;99.90
5796;DHT22;2924;51.458;7.046;2023-02-01T04:58:52;4.70;99.90
5796;DHT22;2924;51.458;7.046;2023-02-01T05:01:18;4.70;99.90
5796;DHT22;2924;51.458;7.046;2023-02-01T05:03:44;4.70;99.90
5796;DHT22;2924;51.458;7.046;2023-02-01T05:06:10;4.70;99.90
5796;DHT22;2924;51.458;7.046;2023-02-01T05:08:35;4.70;99.90
5796;DHT22;2924;51.458;7.046;2023-02-01T05:11:01;4.60;99.90
5796;DHT22;2924;51.458;7.046;2023-02-01T05:13:30;4.60;99.90
5796;DHT22;2924;51.458;7.046;2023-02-01T05:16:14;4.50;99.90
5796;DHT22;2924;51.458;7.046;2023-02-01T05:18:40;4.40;99.90
5796;DHT22;2924;51.458;7.046;2023-02-01T05:21:06;4.30;99.90
5796;DHT22;2924;51.458;7.046;2023-02-01T05:23:32;4.20;99.90
5796;DHT22;2924;51.458;7.046;2023-02-01T05:26:17;4.20;99.90
5796;DHT22;2924;51.458;7.046;2023-02-01T05:28:43;4.30;99.90
5796;DHT22;2924;51.458;7.046;2023-02-01T05:31:12;4.30;99.90
5796;DHT22;2924;51.458;7.046;2023-02-01T05:33:37;4.40;99.90
5796;DHT22;2924;51.458;7.046;2023-02-01T05:36:03;4.40;99.90
5796;DHT22;2924;51.458;7.046;2023-02-01T05:38:29;4.40;99.90
5796;DHT22;2924;51.458;7.046;2023-02-01T05:40:58;4.40;99.90
5796;DHT22;2924;51.458;7.046;2023-02-01T05:43:23;4.30;99.90
5796;DHT22;2924;51.458;7.046;2023-02-01T05:45:51;4.30;99.90
5796;DHT22;2924;51.458;7.046;2023-02-01T05:48:16;4.30;99.90
5796;DHT22;2924;51.458;7.046;2023-02-01T05:50:43;4.10;99.90
5796;DHT22;2924;51.458;7.046;2023-02-01T05:53:08;4.10;99.90
5796;DHT22;2924;51.458;7.046;2023-02-01T05:55:34;4.00;99.90
5796;DHT22;2924;51.458;7.046;2023-02-01T05:58:00;4.00;99.90
5796;DHT22;2924;51.458;7.046;2023-02-01T06:00:25;4.00;99.90
5796;DHT22;2924;51.458;7.046;2023-02-01T06:02:51;4.00;99.90
5796;DHT22;2924;51.458;7.046;2023-02-01T06:05:17;4.00;99.90
5796;DHT22;2924;51.458;7.046;2023-02-01T06:07:42;4.00;99.90
5796;DHT22;2924;51.458;7.046;2023-02-01T06:10:09;4.00;99.90
5796;DHT22;2924;51.458;7.046;2023-02-01T06:12:35;4.10;99.90
5796;DHT22;2924;51.458;7.046;2023-02-01T06:15:00;4.20;99.90
5796;DHT22;2924;51.458;7.046;2023-02-01T06:17:26;4.30;99.90
5796;DHT22;2924;51.458;7.046;2023-02-01T06:19:52;4.40;99.90
5796;DHT22;2924;51.458;7.046;2023-02-01T06:22:17;4.50;99.90
5796;DHT22;2924;51.458;7.046;2023-02-01T06:24:44;4.50;99.90
5796;DHT22;2924;51.458;7.046;2023-02-01T06:27:10;4.60;99.90
5796;DHT22;2924;51.458;7.046;2023-02-01T06:29:36;4.60;99.90
5796;DHT22;2924;51.458;7.046;2023-02-01T06:32:01;4.60;99.90
5796;DHT22;2924;51.458;7.046;2023-02-01T06:34:28;4.60;99.90
5796;DHT22;2924;51.458;7.046;2023-02-01T06:36:54;4.60;99.90
5796;DHT22;2924;51.458;7.046;2023-02-01T06:39:20;4.70;99.90
5796;DHT22;2924;51.458;7.046;2023-02-01T06:41:46;4.70;99.90
5796;DHT22;2924;51.458;7.046;2023-02-01T06:44:13;4.60;99.90
5796;DHT22;2924;51.458;7.046;2023-02-01T06:46:38;4.70;99.90
5796;DHT22;2924;51.458;7.046;2023-02-01T06:49:04;4.60;99.90
5796;DHT22;2924;51.458;7.046;2023-02-01T06:51:29;4.60;99.90
5796;DHT22;2924;51.458;7.046;2023-02-01T06:53:55;4.70;99.90
5796;DHT22;2924;51.458;7.046;2023-02-01T06:56:21;4.70;99.90
5796;DHT22;2924;51.458;7.046;2023-02-01T06:58:47;4.80;99.90
5796;DHT22;2924;51.458;7.046;2023-02-01T07:01:14;4.80;99.90
5796;DHT22;2924;51.458;7.046;2023-02-01T07:03:40;4.80;99.90
5796;DHT22;2924;51.458;7.046;2023-02-01T07:06:06;4.80;99.90
5796;DHT22;2924;51.458;7.046;2023-02-01T07:08:34;4.90;99.90
5796;DHT22;2924;51.458;7.046;2023-02-01T07:11:09;4.90;99.90
5796;DHT22;2924;51.458;7.046;2023-02-01T07:13:35;4.90;99.90
5796;DHT22;2924;51.458;7.046;2023-02-01T07:16:03;4.90;99.90
5796;DHT22;2924;51.458;7.046;2023-02-01T07:18:31;4.90;99.90
5796;DHT22;2924;51.458;7.046;2023-02-01T07:20:57;5.00;99.90
5796;DHT22;2924;51.458;7.046;2023-02-01T07:23:23;5.00;99.90
5796;DHT22;2924;51.458;7.046;2023-02-01T07:25:53;5.00;99.90
5796;DHT22;2924;51.458;7.046;2023-02-01T07:28:19;5.00;99.90
5796;DHT22;2924;51.458;7.046;2023-02-01T07:30:45;5.10;99.90
5796;DHT22;2924;51.458;7.046;2023-02-01T07:33:17;5.10;99.90
5796;DHT22;2924;51.458;7.046;2023-02-01T07:35:43;5.10;99.90
5796;DHT22;2924;51.458;7.046;2023-02-01T07:38:08;5.10;99.90
5796;DHT22;2924;51.458;7.046;2023-02-01T07:40:34;5.10;99.90
5796;DHT22;2924;51.458;7.046;2023-02-01T07:43:00;5.10;99.90
5796;DHT22;2924;51.458;7.046;2023-02-01T07:45:25;5.20;99.90
5796;DHT22;2924;51.458;7.046;2023-02-01T07:47:52;5.20;99.90
5796;DHT22;2924;51.458;7.046;2023-02-01T07:50:18;5.20;99.90
5796;DHT22;2924;51.458;7.046;2023-02-01T07:52:44;5.20;99.90
5796;DHT22;2924;51.458;7.046;2023-02-01T07:55:10;5.20;99.90
5796;DHT22;2924;51.458;7.046;2023-02-01T07:57:36;5.20;99.90
5796;DHT22;2924;51.458;7.046;2023-02-01T08:00:02;5.20;99.90
5796;DHT22;2924;51.458;7.046;2023-02-01T08:02:46;5.20;99.90
5796;DHT22;2924;51.458;7.046;2023-02-01T08:05:12;5.20;99.90
5796;DHT22;2924;51.458;7.046;2023-02-01T08:07:38;5.20;99.90
5796;DHT22;2924;51.458;7.046;2023-02-01T08:10:04;5.20;99.90
5796;DHT22;2924;51.458;7.046;2023-02-01T08:12:32;5.30;99.90
5796;DHT22;2924;51.458;7.046;2023-02-01T08:14:58;5.30;99.90
5796;DHT22;2924;51.458;7.046;2023-02-01T08:17:23;5.30;99.90
5796;DHT22;2924;51.458;7.046;2023-02-01T08:19:49;5.30;99.90
5796;DHT22;2924;51.458;7.046;2023-02-01T08:22:15;5.30;99.90
5796;DHT22;2924;51.458;7.046;2023-02-01T08:24:40;5.40;99.90
5796;DHT22;2924;51.458;7.046;2023-02-01T08:27:07;5.40;99.90
5796;DHT22;2924;51.458;7.046;2023-02-01T08:29:32;5.40;99.90
5796;DHT22;2924;51.458;7.046;2023-02-01T08:31:58;5.40;99.90
5796;DHT22;2924;51.458;7.046;2023-02-01T08:34:24;5.50;99.90
5796;DHT22;2924;51.458;7.046;2023-02-01T08:36:49;5.40;99.90
5796;DHT22;2924;51.458;7.046;2023-02-01T08:39:17;5.50;99.90
5796;DHT22;2924;51.458;7.046;2023-02-01T08:41:43;5.50;99.90
5796;DHT22;2924;51.458;7.046;2023-02-01T08:44:28;5.50;99.90
5796;DHT22;2924;51.458;7.046;2023-02-01T08:46:54;5.50;99.90
5796;DHT22;2924;51.458;7.046;2023-02-01T08:49:19;5.50;99.90
5796;DHT22;2924;51.458;7.046;2023-02-01T08:51:45;5.60;99.90
5796;DHT22;2924;51.458;7.046;2023-02-01T08:54:10;5.60;99.90
5796;DHT22;2924;51.458;7.046;2023-02-01T08:56:36;5.70;99.90
5796;DHT22;2924;51.458;7.046;2023-02-01T08:59:02;5.80;99.90
5796;DHT22;2924;51.458;7.046;2023-02-01T09:01:27;5.70;99.90
5796;DHT22;2924;51.458;7.046;2023-02-01T09:03:53;5.70;99.90
5796;DHT22;2924;51.458;7.046;2023-02-01T09:06:18;5.80;99.90
5796;DHT22;2924;51.458;7.046;2023-02-01T09:08:44;5.70;99.90
5796;DHT22;2924;51.458;7.046;2023-02-01T09:11:16;5.70;99.90
5796;DHT22;2924;51.458;7.046;2023-02-01T09:13:42;5.60;99.90
5796;DHT22;2924;51.458;7.046;2023-02-01T09:16:08;5.60;99.90
5796;DHT22;2924;51.458;7.046;2023-02-01T09:18:34;5.60;99.90
5796;DHT22;2924;51.458;7.046;2023-02-01T09:21:04;5.70;99.90
5796;DHT22;2924;51.458;7.046;2023-02-01T09:23:29;5.70;99.90
5796;DHT22;2924;51.458;7.046;2023-02-01T09:26:02;5.80;99.90
5796;DHT22;2924;51.458;7.046;2023-02-01T09:28:28;5.90;99.90
5796;DHT22;2924;51.458;7.046;2023-02-01T09:30:57;5.90;99.90
5796;DHT22;2924;51.458;7.046;2023-02-01T09:33:24;5.90;99.90
5796;DHT22;2924;51.458;7.046;2023-02-01T09:35:59;5.90;99.90
5796;DHT22;2924;51.458;7.046;2023-02-01T09:38:25;5.90;99.90
5796;DHT22;2924;51.458;7.046;2023-02-01T09:40:53;5.90;99.90
5796;DHT22;2924;51.458;7.046;2023-02-01T09:43:52;6.00;99.90
5796;DHT22;2924;51.458;7.046;2023-02-01T09:46:29;6.20;99.90
5796;DHT22;2924;51.458;7.046;2023-02-01T09:48:58;6.20;99.90
5796;DHT22;2924;51.458;7.046;2023-02-01T09:51:35;6.30;99.90
5796;DHT22;2924;51.458;7.046;2023-02-01T09:54:24;6.30;99.90
5796;DHT22;2924;51.458;7.046;2023-02-01T09:57:06;6.40;99.90
5796;DHT22;2924;51.458;7.046;2023-02-01T09:59:42;6.40;99.90
5796;DHT22;2924;51.458;7.046;2023-02-01T10:02:24;6.50;99.90
5796;DHT22;2924;51.458;7.046;2023-02-01T10:04:54;6.60;99.90
5796;DHT22;2924;51.458;7.046;2023-02-01T10:10:03;6.60;99.90
5796;DHT22;2924;51.458;7.046;2023-02-01T10:26:26;6.70;99.90
5796;DHT22;2924;51.458;7.046;2023-02-01T10:28:58;6.80;99.90
5796;DHT22;2924;51.458;7.046;2023-02-01T10:31:26;6.90;99.90
5796;DHT22;2924;51.458;7.046;2023-02-01T10:34:00;6.90;99.90
5796;DHT22;2924;51.458;7.046;2023-02-01T10:36:41;6.80;99.90
5796;DHT22;2924;51.458;7.046;2023-02-01T10:39:12;6.70;99.90
5796;DHT22;2924;51.458;7.046;2023-02-01T10:41:40;6.70;99.90
5796;DHT22;2924;51.458;7.046;2023-02-01T10:44:15;6.70;99.90
5796;DHT22;2924;51.458;7.046;2023-02-01T10:46:42;6.60;99.90
5796;DHT22;2924;51.458;7.046;2023-02-01T10:49:38;6.60;99.90
5796;DHT22;2924;51.458;7.046;2023-02-01T10:52:15;6.60;99.90
5796;DHT22;2924;51.458;7.046;2023-02-01T10:54:42;6.50;99.90
5796;DHT22;2924;51.458;7.046;2023-02-01T10:57:09;6.50;99.90
5796;DHT22;2924;51.458;7.046;2023-02-01T10:59:35;6.60;99.90
5796;DHT22;2924;51.458;7.046;2023-02-01T11:02:19;6.70;99.90
5796;DHT22;2924;51.458;7.046;2023-02-01T11:04:45;6.80;99.90
5796;DHT22;2924;51.458;7.046;2023-02-01T11:07:23;6.80;99.90
5796;DHT22;2924;51.458;7.046;2023-02-01T11:09:51;6.80;99.90
5796;DHT22;2924;51.458;7.046;2023-02-01T11:12:31;6.80;99.90
5796;DHT22;2924;51.458;7.046;2023-02-01T11:15:20;6.70;99.90
5796;DHT22;2924;51.458;7.046;2023-02-01T11:17:49;6.80;99.90
5796;DHT22;2924;51.458;7.046;2023-02-01T11:22:57;7.00;99.90
5796;DHT22;2924;51.458;7.046;2023-02-01T11:25:24;7.10;99.90
5796;DHT22;2924;51.458;7.046;2023-02-01T11:27:51;7.20;99.90
5796;DHT22;2924;51.458;7.046;2023-02-01T11:30:34;7.10;99.90
5796;DHT22;2924;51.458;7.046;2023-02-01T11:33:03;7.00;99.90
5796;DHT22;2924;51.458;7.046;2023-02-01T11:35:30;6.90;99.90
5796;DHT22;2924;51.458;7.046;2023-02-01T11:37:58;6.90;99.90
5796;DHT22;2924;51.458;7.046;2023-02-01T11:40:50;6.90;99.90
5796;DHT22;2924;51.458;7.046;2023-02-01T11:43:26;6.80;99.90
5796;DHT22;2924;51.458;7.046;2023-02-01T11:46:00;6.90;99.90
5796;DHT22;2924;51.458;7.046;2023-02-01T11:48:30;6.90;99.90
5796;DHT22;2924;51.458;7.046;2023-02-01T11:51:18;6.80;99.90
5796;DHT22;2924;51.458;7.046;2023-02-01T11:56:55;6.60;99.90
5796;DHT22;2924;51.458;7.046;2023-02-01T12:00:02;6.40;99.90
5796;DHT22;2924;51.458;7.046;2023-02-01T12:16:00;5.50;99.90
5796;DHT22;2924;51.458;7.046;2023-02-01T12:18:50;5.50;99.90
5796;DHT22;2924;51.458;7.046;2023-02-01T12:26:41;5.40;99.90
5796;DHT22;2924;51.458;7.046;2023-02-01T12:42:41;5.80;99.90
5796;DHT22;2924;51.458;7.046;2023-02-01T12:45:15;5.80;99.90
5796;DHT22;2924;51.458;7.046;2023-02-01T12:47:54;5.90;99.90
5796;DHT22;2924;51.458;7.046;2023-02-01T12:50:40;6.00;99.90
5796;DHT22;2924;51.458;7.046;2023-02-01T12:54:15;6.10;99.90
5796;DHT22;2924;51.458;7.046;2023-02-01T12:56:11;6.10;99.90
5796;DHT22;2924;51.458;7.046;2023-02-01T12:58:44;6.10;99.90
5796;DHT22;2924;51.458;7.046;2023-02-01T13:01:21;6.10;99.90
5796;DHT22;2924;51.458;7.046;2023-02-01T13:04:02;6.10;99.90
5796;DHT22;2924;51.458;7.046;2023-02-01T13:06:42;6.10;99.90
5796;DHT22;2924;51.458;7.046;2023-02-01T13:09:26;6.10;99.90
5796;DHT22;2924;51.458;7.046;2023-02-01T13:11:57;6.00;99.90
5796;DHT22;2924;51.458;7.046;2023-02-01T13:14:42;5.90;99.90
5796;DHT22;2924;51.458;7.046;2023-02-01T13:17:21;5.90;99.90
5796;DHT22;2924;51.458;7.046;2023-02-01T13:22:39;5.80;99.90
5796;DHT22;2924;51.458;7.046;2023-02-01T13:25:49;5.80;99.90
5796;DHT22;2924;51.458;7.046;2023-02-01T13:28:27;5.80;99.90
5796;DHT22;2924;51.458;7.046;2023-02-01T13:37:00;6.00;99.90
5796;DHT22;2924;51.458;7.046;2023-02-01T13:39:41;6.10;99.90
5796;DHT22;2924;51.458;7.046;2023-02-01T13:44:50;6.20;99.90
5796;DHT22;2924;51.458;7.046;2023-02-01T13:47:39;6.30;99.90
5796;DHT22;2924;51.458;7.046;2023-02-01T13:50:37;6.40;99.90
5796;DHT22;2924;51.458;7.046;2023-02-01T13:55:40;6.50;99.90
5796;DHT22;2924;51.458;7.046;2023-02-01T14:00:41;6.60;99.90
5796;DHT22;2924;51.458;7.046;2023-02-01T14:03:21;6.70;99.90
5796;DHT22;2924;51.458;7.046;2023-02-01T14:10:58;6.50;99.90
5796;DHT22;2924;51.458;7.046;2023-02-01T14:13:33;6.50;99.90
5796;DHT22;2924;51.458;7.046;2023-02-01T14:23:46;6.60;99.90
5796;DHT22;2924;51.458;7.046;2023-02-01T14:31:52;6.60;99.90
5796;DHT22;2924;51.458;7.046;2023-02-01T14:37:26;6.60;99.90
5796;DHT22;2924;51.458;7.046;2023-02-01T14:39:54;6.60;99.90
5796;DHT22;2924;51.458;7.046;2023-02-01T14:55:53;6.60;99.90
5796;DHT22;2924;51.458;7.046;2023-02-01T14:58:40;6.50;99.90
5796;DHT22;2924;51.458;7.046;2023-02-01T15:03:58;6.40;99.90
5796;DHT22;2924;51.458;7.046;2023-02-01T15:14:19;6.30;99.90
5796;DHT22;2924;51.458;7.046;2023-02-01T15:16:44;6.30;99.90
5796;DHT22;2924;51.458;7.046;2023-02-01T15:19:15;6.40;99.90
5796;DHT22;2924;51.458;7.046;2023-02-01T15:21:50;6.40;99.90
5796;DHT22;2924;51.458;7.046;2023-02-01T15:24:29;6.50;99.90
5796;DHT22;2924;51.458;7.046;2023-02-01T15:26:56;6.50;99.90
5796;DHT22;2924;51.458;7.046;2023-02-01T15:29:27;6.60;99.90
5796;DHT22;2924;51.458;7.046;2023-02-01T15:31:58;6.60;99.90
5796;DHT22;2924;51.458;7.046;2023-02-01T15:34:47;6.70;99.90
5796;DHT22;2924;51.458;7.046;2023-02-01T15:37:14;6.80;99.90
5796;DHT22;2924;51.458;7.046;2023-02-01T15:42:35;6.90;99.90
5796;DHT22;2924;51.458;7.046;2023-02-01T15:45:02;6.90;99.90
5796;DHT22;2924;51.458;7.046;2023-02-01T15:47:29;6.90;99.90
5796;DHT22;2924;51.458;7.046;2023-02-01T15:49:58;6.90;99.90
5796;DHT22;2924;51.458;7.046;2023-02-01T15:55:05;6.90;99.90
5796;DHT22;2924;51.458;7.046;2023-02-01T15:57:39;7.00;99.90
5796;DHT22;2924;51.458;7.046;2023-02-01T16:00:28;7.00;99.90
5796;DHT22;2924;51.458;7.046;2023-02-01T16:02:59;7.00;99.90
5796;DHT22;2924;51.458;7.046;2023-02-01T16:05:34;7.00;99.90
5796;DHT22;2924;51.458;7.046;2023-02-01T16:08:16;7.00;99.90
5796;DHT22;2924;51.458;7.046;2023-02-01T16:10:46;7.00;99.90
5796;DHT22;2924;51.458;7.046;2023-02-01T16:13:14;7.00;99.90
5796;DHT22;2924;51.458;7.046;2023-02-01T16:15:39;6.90;99.90
5796;DHT22;2924;51.458;7.046;2023-02-01T16:18:06;7.00;99.90
5796;DHT22;2924;51.458;7.046;2023-02-01T16:20:36;7.00;99.90
5796;DHT22;2924;51.458;7.046;2023-02-01T16:23:03;6.90;99.90
5796;DHT22;2924;51.458;7.046;2023-02-01T16:25:29;6.80;99.90
5796;DHT22;2924;51.458;7.046;2023-02-01T16:27:55;6.80;99.90
5796;DHT22;2924;51.458;7.046;2023-02-01T16:30:21;6.80;99.90
5796;DHT22;2924;51.458;7.046;2023-02-01T16:32:56;6.70;99.90
5796;DHT22;2924;51.458;7.046;2023-02-01T16:35:26;6.50;99.90
5796;DHT22;2924;51.458;7.046;2023-02-01T16:37:52;6.20;99.90
5796;DHT22;2924;51.458;7.046;2023-02-01T16:40:19;6.10;99.90
5796;DHT22;2924;51.458;7.046;2023-02-01T16:42:46;5.90;99.90
5796;DHT22;2924;51.458;7.046;2023-02-01T16:45:13;5.80;99.90
5796;DHT22;2924;51.458;7.046;2023-02-01T16:47:48;5.70;99.90
5796;DHT22;2924;51.458;7.046;2023-02-01T16:50:17;5.70;99.90
5796;DHT22;2924;51.458;7.046;2023-02-01T16:52:44;5.70;99.90
5796;DHT22;2924;51.458;7.046;2023-02-01T16:55:14;5.70;99.90
5796;DHT22;2924;51.458;7.046;2023-02-01T16:57:41;5.70;99.90
5796;DHT22;2924;51.458;7.046;2023-02-01T17:00:11;5.80;99.90
5796;DHT22;2924;51.458;7.046;2023-02-01T17:02:37;5.80;99.90
5796;DHT22;2924;51.458;7.046;2023-02-01T17:05:04;5.80;99.90
5796;DHT22;2924;51.458;7.046;2023-02-01T17:07:30;5.80;99.90
5796;DHT22;2924;51.458;7.046;2023-02-01T17:09:56;5.80;99.90
5796;DHT22;2924;51.458;7.046;2023-02-01T17:12:24;5.90;99.90
5796;DHT22;2924;51.458;7.046;2023-02-01T17:14:51;5.90;99.90
5796;DHT22;2924;51.458;7.046;2023-02-01T17:17:18;5.90;99.90
5796;DHT22;2924;51.458;7.046;2023-02-01T17:19:50;6.00;99.90
5796;DHT22;2924;51.458;7.046;2023-02-01T17:22:20;6.00;99.90
5796;DHT22;2924;51.458;7.046;2023-02-01T17:24:46;6.10;99.90
5796;DHT22;2924;51.458;7.046;2023-02-01T17:27:12;6.10;99.90
5796;DHT22;2924;51.458;7.046;2023-02-01T17:29:37;6.10;99.90
5796;DHT22;2924;51.458;7.046;2023-02-01T17:32:03;6.10;99.90
5796;DHT22;2924;51.458;7.046;2023-02-01T17:34:29;6.20;99.90
5796;DHT22;2924;51.458;7.046;2023-02-01T17:36:55;6.30;99.90
5796;DHT22;2924;51.458;7.046;2023-02-01T17:39:21;6.20;99.90
5796;DHT22;2924;51.458;7.046;2023-02-01T17:42:10;6.20;99.90
5796;DHT22;2924;51.458;7.046;2023-02-01T17:44:35;6.20;99.90
5796;DHT22;2924;51.458;7.046;2023-02-01T17:47:01;6.30;99.90
5796;DHT22;2924;51.458;7.046;2023-02-01T17:49:27;6.30;99.90
5796;DHT22;2924;51.458;7.046;2023-02-01T17:51:56;6.40;99.90
5796;DHT22;2924;51.458;7.046;2023-02-01T17:54:22;6.40;99.90
5796;DHT22;2924;51.458;7.046;2023-02-01T17:56:48;6.30;99.90
5796;DHT22;2924;51.458;7.046;2023-02-01T17:59:14;6.30;99.90
5796;DHT22;2924;51.458;7.046;2023-02-01T18:01:40;6.40;99.90
5796;DHT22;2924;51.458;7.046;2023-02-01T18:04:11;6.30;99.90
5796;DHT22;2924;51.458;7.046;2023-02-01T18:06:37;6.40;99.90
5796;DHT22;2924;51.458;7.046;2023-02-01T18:09:02;6.40;99.90
5796;DHT22;2924;51.458;7.046;2023-02-01T18:11:28;6.40;99.90
5796;DHT22;2924;51.458;7.046;2023-02-01T18:13:57;6.40;99.90
5796;DHT22;2924;51.458;7.046;2023-02-01T18:16:26;6.30;99.90
5796;DHT22;2924;51.458;7.046;2023-02-01T18:18:52;6.30;99.90
5796;DHT22;2924;51.458;7.046;2023-02-01T18:21:20;6.30;99.90
5796;DHT22;2924;51.458;7.046;2023-02-01T18:23:46;6.30;99.90
5796;DHT22;2924;51.458;7.046;2023-02-01T18:26:17;6.30;99.90
5796;DHT22;2924;51.458;7.046;2023-02-01T18:28:42;6.30;99.90
5796;DHT22;2924;51.458;7.046;2023-02-01T18:31:24;6.30;99.90
5796;DHT22;2924;51.458;7.046;2023-02-01T18:33:51;6.30;99.90
5796;DHT22;2924;51.458;7.046;2023-02-01T18:36:18;6.40;99.90
5796;DHT22;2924;51.458;7.046;2023-02-01T18:38:43;6.40;99.90
5796;DHT22;2924;51.458;7.046;2023-02-01T18:41:14;6.40;99.90
5796;DHT22;2924;51.458;7.046;2023-02-01T18:43:40;6.40;99.90
5796;DHT22;2924;51.458;7.046;2023-02-01T18:46:08;6.50;99.90
5796;DHT22;2924;51.458;7.046;2023-02-01T18:48:35;6.40;99.90
5796;DHT22;2924;51.458;7.046;2023-02-01T18:51:01;6.10;99.90
5796;DHT22;2924;51.458;7.046;2023-02-01T18:53:26;5.50;99.90
5796;DHT22;2924;51.458;7.046;2023-02-01T18:55:53;5.10;99.90
5796;DHT22;2924;51.458;7.046;2023-02-01T18:58:19;5.00;99.90
5796;DHT22;2924;51.458;7.046;2023-02-01T19:00:46;4.90;99.90
5796;DHT22;2924;51.458;7.046;2023-02-01T19:03:13;5.00;99.90
5796;DHT22;2924;51.458;7.046;2023-02-01T19:05:39;5.00;99.90
5796;DHT22;2924;51.458;7.046;2023-02-01T19:08:05;5.00;99.90
5796;DHT22;2924;51.458;7.046;2023-02-01T19:10:31;5.10;99.90